createdAt,value
2023-01-09T00:00:32.220Z,54.30
2023-01-09T00:03:20.061Z,57.30
2023-01-09T00:05:48.272Z,54.30
2023-01-09T00:08:26.705Z,53.90
2023-01-09T00:10:54.367Z,53.60
2023-01-09T00:13:22.047Z,56.80
2023-01-09T00:15:49.841Z,54.60
2023-01-09T00:18:17.530Z,56.20
2023-01-09T00:20:45.132Z,56.00
2023-01-09T00:23:12.909Z,53.90
2023-01-09T00:25:47.645Z,58.00
2023-01-09T00:28:15.414Z,57.20
2023-01-09T00:30:44.342Z,56.30
2023-01-09T00:33:12.753Z,56.80
2023-01-09T00:35:40.537Z,55.40
2023-01-09T00:38:08.286Z,52.60
2023-01-09T00:40:36.020Z,54.90
2023-01-09T00:43:07.725Z,56.20
2023-01-09T00:45:35.596Z,55.30
2023-01-09T00:48:05.088Z,55.00
2023-01-09T00:50:33.643Z,56.00
2023-01-09T00:53:05.342Z,53.60
2023-01-09T00:55:34.317Z,55.00
2023-01-09T00:58:03.070Z,54.30
2023-01-09T01:00:30.853Z,52.30
2023-01-09T01:02:58.642Z,55.20
2023-01-09T01:05:45.094Z,52.80
2023-01-09T01:08:16.014Z,50.90
2023-01-09T01:10:44.248Z,55.60
2023-01-09T01:13:12.331Z,54.80
2023-01-09T01:15:43.928Z,55.20
2023-01-09T01:18:12.648Z,55.80
2023-01-09T01:20:40.966Z,50.50
2023-01-09T01:23:09.060Z,51.70
2023-01-09T01:25:41.458Z,52.50
2023-01-09T01:28:10.356Z,52.50
2023-01-09T01:30:38.996Z,52.30
2023-01-09T01:33:07.271Z,51.10
2023-01-09T01:35:35.260Z,51.20
2023-01-09T01:38:03.339Z,52.30
2023-01-09T01:40:31.115Z,50.90
2023-01-09T01:42:58.948Z,50.40
2023-01-09T01:45:28.504Z,56.40
2023-01-09T01:48:14.936Z,52.90
2023-01-09T01:51:10.092Z,50.30
2023-01-09T01:53:47.535Z,50.70
2023-01-09T01:56:15.210Z,49.90
2023-01-09T01:58:55.125Z,53.20
2023-01-09T02:01:24.180Z,49.50
2023-01-09T02:03:53.264Z,50.00
2023-01-09T02:06:21.073Z,49.70
2023-01-09T02:08:49.123Z,51.30
2023-01-09T02:11:23.704Z,49.20
2023-01-09T02:13:52.036Z,49.70
2023-01-09T02:16:25.897Z,49.20
2023-01-09T02:18:58.316Z,48.40
2023-01-09T02:21:32.396Z,50.60
2023-01-09T02:26:32.656Z,48.20
2023-01-09T02:29:09.579Z,48.50
2023-01-09T02:31:53.487Z,46.80
2023-01-09T02:34:27.277Z,48.60
2023-01-09T02:36:55.197Z,46.80
2023-01-09T02:39:22.874Z,53.80
2023-01-09T02:41:58.548Z,49.30
2023-01-09T02:44:27.656Z,49.60
2023-01-09T02:47:27.841Z,51.40
2023-01-09T02:50:00.338Z,49.60
2023-01-09T02:52:39.928Z,47.60
2023-01-09T02:55:13.377Z,51.10
2023-01-09T02:58:01.963Z,53.10
2023-01-09T03:00:47.357Z,50.20
2023-01-09T03:03:15.088Z,53.40
2023-01-09T03:05:45.850Z,46.30
2023-01-09T03:08:16.384Z,52.50
2023-01-09T03:10:44.071Z,49.20
2023-01-09T03:13:19.966Z,51.30
2023-01-09T03:15:50.797Z,47.90
2023-01-09T03:18:20.998Z,49.60
2023-01-09T03:20:55.605Z,51.40
2023-01-09T03:23:23.442Z,46.80
2023-01-09T03:25:51.124Z,47.80
2023-01-09T03:28:29.153Z,48.20
2023-01-09T03:30:56.993Z,50.30
2023-01-09T03:33:24.773Z,49.50
2023-01-09T03:35:52.570Z,48.80
2023-01-09T03:38:20.294Z,50.40
2023-01-09T03:40:48.682Z,48.70
2023-01-09T03:43:16.438Z,51.00
2023-01-09T03:45:44.195Z,49.40
2023-01-09T03:48:12.145Z,50.00
2023-01-09T03:50:42.584Z,50.50
2023-01-09T03:53:10.222Z,51.90
2023-01-09T03:55:37.969Z,49.90
2023-01-09T03:58:06.271Z,50.30
2023-01-09T04:00:33.990Z,50.20
2023-01-09T04:03:01.818Z,53.20
2023-01-09T04:05:29.503Z,48.50
2023-01-09T04:07:57.192Z,49.40
2023-01-09T04:10:24.950Z,48.80
2023-01-09T04:12:52.884Z,49.90
2023-01-09T04:15:20.615Z,51.50
2023-01-09T04:17:48.295Z,49.70
2023-01-09T04:20:16.549Z,47.40
2023-01-09T04:22:44.428Z,52.00
2023-01-09T04:25:12.337Z,52.70
2023-01-09T04:27:40.172Z,51.70
2023-01-09T04:30:08.417Z,51.80
2023-01-09T04:32:36.050Z,51.80
2023-01-09T04:35:10.921Z,48.50
2023-01-09T04:37:39.568Z,50.50
2023-01-09T04:40:12.076Z,48.60
2023-01-09T04:42:40.435Z,49.40
2023-01-09T04:45:09.468Z,50.00
2023-01-09T04:47:37.575Z,52.50
2023-01-09T04:50:05.460Z,53.40
2023-01-09T04:52:33.186Z,51.60
2023-01-09T04:55:00.955Z,49.60
2023-01-09T04:57:28.758Z,51.60
2023-01-09T04:59:56.644Z,52.40
2023-01-09T05:02:24.292Z,53.70
2023-01-09T05:04:52.044Z,49.50
2023-01-09T05:07:19.767Z,51.20
2023-01-09T05:09:47.521Z,54.40
2023-01-09T05:12:15.291Z,52.30
2023-01-09T05:14:46.910Z,53.90
2023-01-09T05:17:21.455Z,49.30
2023-01-09T05:19:49.240Z,49.70
2023-01-09T05:22:16.977Z,52.40
2023-01-09T05:24:44.714Z,51.20
2023-01-09T05:27:12.524Z,50.60
2023-01-09T05:29:40.219Z,49.40
2023-01-09T05:32:08.080Z,53.20
2023-01-09T05:34:35.894Z,49.80
2023-01-09T05:37:10.382Z,51.30
2023-01-09T05:39:38.235Z,49.60
2023-01-09T05:42:05.962Z,50.40
2023-01-09T05:44:33.697Z,53.20
2023-01-09T05:47:02.909Z,49.10
2023-01-09T05:49:31.891Z,50.50
2023-01-09T05:51:59.750Z,51.50
2023-01-09T05:54:27.594Z,48.00
2023-01-09T05:56:55.401Z,51.00
2023-01-09T05:59:23.192Z,49.10
2023-01-09T06:01:50.980Z,51.60
2023-01-09T06:04:18.782Z,48.80
2023-01-09T06:06:46.628Z,51.00
2023-01-09T06:09:15.321Z,52.30
2023-01-09T06:11:43.064Z,50.00
2023-01-09T06:14:10.857Z,52.10
2023-01-09T06:16:38.588Z,54.80
2023-01-09T06:19:06.451Z,52.40
2023-01-09T06:21:34.274Z,52.70
2023-01-09T06:24:02.296Z,50.70
2023-01-09T06:26:29.949Z,52.30
2023-01-09T06:28:57.808Z,52.50
2023-01-09T06:31:25.593Z,49.70
2023-01-09T06:33:53.766Z,54.10
2023-01-09T06:36:22.572Z,53.90
2023-01-09T06:38:50.551Z,55.80
2023-01-09T06:41:18.319Z,52.60
2023-01-09T06:43:46.046Z,57.70
2023-01-09T06:46:13.792Z,56.70
2023-01-09T06:48:41.585Z,61.50
2023-01-09T06:51:13.224Z,59.40
2023-01-09T06:53:40.952Z,56.50
2023-01-09T06:56:09.956Z,52.20
2023-01-09T06:58:37.725Z,56.30
2023-01-09T07:01:05.584Z,63.20
2023-01-09T07:03:33.921Z,57.40
2023-01-09T07:06:01.887Z,64.30
2023-01-09T07:08:29.757Z,64.90
2023-01-09T07:10:57.629Z,58.90
2023-01-09T07:13:25.423Z,55.00
2023-01-09T07:18:46.939Z,67.10
2023-01-09T07:21:14.706Z,56.50
2023-01-09T07:23:42.440Z,65.70
2023-01-09T07:26:17.049Z,62.90
2023-01-09T07:28:50.961Z,61.90
2023-01-09T07:31:25.176Z,63.70
2023-01-09T07:36:26.939Z,68.00
2023-01-09T07:39:01.018Z,66.60
2023-01-09T07:44:01.055Z,60.20
2023-01-09T07:46:29.312Z,73.30
2023-01-09T07:48:57.012Z,63.10
2023-01-09T07:51:24.794Z,106.40
2023-01-09T07:53:52.618Z,70.80
2023-01-09T07:56:20.421Z,65.70
2023-01-09T07:58:48.160Z,65.20
2023-01-09T08:01:16.121Z,66.50
2023-01-09T08:03:43.998Z,81.40
2023-01-09T08:06:12.823Z,68.30
2023-01-09T08:08:40.508Z,77.80
2023-01-09T08:11:08.215Z,65.20
2023-01-09T08:13:35.988Z,70.00
2023-01-09T08:16:03.985Z,58.20
2023-01-09T08:18:31.729Z,76.00
2023-01-09T08:21:06.439Z,65.90
2023-01-09T08:23:34.258Z,75.90
2023-01-09T08:26:02.002Z,71.40
2023-01-09T08:28:29.824Z,63.50
2023-01-09T08:30:57.631Z,75.70
2023-01-09T08:33:25.447Z,62.20
2023-01-09T08:35:54.279Z,70.00
2023-01-09T08:38:24.894Z,65.40
2023-01-09T08:40:52.605Z,71.80
2023-01-09T08:43:39.336Z,65.60
2023-01-09T08:46:34.683Z,70.30
2023-01-09T08:49:02.536Z,60.00
2023-01-09T08:51:30.403Z,59.30
2023-01-09T08:53:58.957Z,64.40
2023-01-09T08:56:26.593Z,69.70
2023-01-09T08:58:54.620Z,71.30
2023-01-09T09:01:22.358Z,67.50
2023-01-09T09:03:50.412Z,62.70
2023-01-09T09:06:18.513Z,61.30
2023-01-09T09:08:46.578Z,61.00
2023-01-09T09:11:14.764Z,75.30
2023-01-09T09:13:42.828Z,63.00
2023-01-09T09:16:10.623Z,65.40
2023-01-09T09:18:38.472Z,82.00
2023-01-09T09:21:30.049Z,67.00
2023-01-09T09:23:59.390Z,68.90
2023-01-09T09:26:27.110Z,64.70
2023-01-09T09:28:54.921Z,66.60
2023-01-09T09:31:22.866Z,57.40
2023-01-09T09:33:50.650Z,60.30
2023-01-09T09:36:25.219Z,57.10
2023-01-09T09:38:59.928Z,58.70
2023-01-09T09:41:56.281Z,60.60
2023-01-09T09:44:52.703Z,58.00
2023-01-09T09:47:41.708Z,57.60
2023-01-09T09:50:20.173Z,58.30
2023-01-09T09:52:48.056Z,60.60
2023-01-09T09:55:27.479Z,61.30
2023-01-09T09:57:56.560Z,61.30
2023-01-09T10:00:24.413Z,65.00
2023-01-09T10:02:55.883Z,59.90
2023-01-09T10:05:33.112Z,66.70
2023-01-09T10:08:15.953Z,58.70
2023-01-09T10:10:47.734Z,63.50
2023-01-09T10:13:36.830Z,60.70
2023-01-09T10:16:31.190Z,62.40
2023-01-09T10:18:58.823Z,53.60
2023-01-09T10:21:34.390Z,60.20
2023-01-09T10:24:05.899Z,60.50
2023-01-09T10:26:45.781Z,57.40
2023-01-09T10:29:21.218Z,58.40
2023-01-09T10:31:55.845Z,62.90
2023-01-09T10:34:23.535Z,70.40
2023-01-09T10:37:00.466Z,60.30
2023-01-09T10:39:55.737Z,79.60
2023-01-09T10:42:30.437Z,88.90
2023-01-09T10:45:07.756Z,64.20
2023-01-09T10:47:37.993Z,62.00
2023-01-09T10:50:34.875Z,64.70
2023-01-09T10:53:10.250Z,64.50
2023-01-09T10:55:43.091Z,58.10
2023-01-09T10:58:11.812Z,58.30
2023-01-09T11:00:40.636Z,60.80
2023-01-09T11:03:16.184Z,58.20
2023-01-09T11:05:44.570Z,61.30
2023-01-09T11:08:24.435Z,71.30
2023-01-09T11:10:53.668Z,61.70
2023-01-09T11:13:23.664Z,59.70
2023-01-09T11:16:05.065Z,65.00
2023-01-09T11:18:33.774Z,60.50
2023-01-09T11:21:13.981Z,64.30
2023-01-09T11:23:50.125Z,58.90
2023-01-09T11:26:23.114Z,60.10
2023-01-09T11:29:07.390Z,57.10
2023-01-09T11:31:35.356Z,61.40
2023-01-09T11:34:03.841Z,58.20
2023-01-09T11:36:31.849Z,54.40
2023-01-09T11:39:01.097Z,57.60
2023-01-09T11:41:31.074Z,56.00
2023-01-09T11:43:59.461Z,55.80
2023-01-09T11:46:30.389Z,56.90
2023-01-09T11:48:58.738Z,56.80
2023-01-09T11:51:28.268Z,63.60
2023-01-09T11:54:10.077Z,59.00
2023-01-09T11:56:38.334Z,63.10
2023-01-09T11:59:11.142Z,57.30
2023-01-09T12:02:00.215Z,58.20
2023-01-09T12:04:35.959Z,72.70
2023-01-09T12:07:29.316Z,96.40
2023-01-09T12:10:03.270Z,63.20
2023-01-09T12:12:51.421Z,52.10
2023-01-09T12:15:19.207Z,60.00
2023-01-09T12:17:47.055Z,53.30
2023-01-09T12:20:24.657Z,63.70
2023-01-09T12:22:58.052Z,63.30
2023-01-09T12:25:44.889Z,65.50
2023-01-09T12:28:22.233Z,50.10
2023-01-09T12:31:09.159Z,63.10
2023-01-09T12:33:42.896Z,49.90
2023-01-09T12:36:10.870Z,47.80
2023-01-09T12:38:41.888Z,57.30
2023-01-09T12:41:36.457Z,50.90
2023-01-09T12:44:34.956Z,56.50
2023-01-09T12:47:27.502Z,54.80
2023-01-09T12:50:07.340Z,47.70
2023-01-09T12:52:39.538Z,49.10
2023-01-09T12:55:13.554Z,46.30
2023-01-09T12:57:46.661Z,53.90
2023-01-09T13:00:19.003Z,49.50
2023-01-09T13:02:55.287Z,47.20
2023-01-09T13:05:34.543Z,50.70
2023-01-09T13:08:13.291Z,48.70
2023-01-09T13:10:43.921Z,49.10
2023-01-09T13:13:24.947Z,56.70
2023-01-09T13:15:55.318Z,57.60
2023-01-09T13:18:27.624Z,49.30
2023-01-09T13:20:58.550Z,56.20
2023-01-09T13:23:32.358Z,49.20
2023-01-09T13:26:02.505Z,52.40
2023-01-09T13:28:44.165Z,41.00
2023-01-09T13:31:20.998Z,42.30
2023-01-09T13:33:54.521Z,56.40
2023-01-09T13:36:25.664Z,50.00
2023-01-09T13:38:55.123Z,41.60
2023-01-09T13:41:48.481Z,44.90
2023-01-09T13:44:21.705Z,49.00
2023-01-09T13:46:51.556Z,46.80
2023-01-09T13:49:32.799Z,39.80
2023-01-09T13:52:05.122Z,49.80
2023-01-09T13:54:59.805Z,54.50
2023-01-09T13:57:29.607Z,43.50
2023-01-09T14:00:22.227Z,53.00
2023-01-09T14:02:57.743Z,42.30
2023-01-09T14:05:25.578Z,57.60
2023-01-09T14:08:12.408Z,57.00
2023-01-09T14:10:47.729Z,49.50
2023-01-09T14:13:15.430Z,75.30
2023-01-09T14:15:47.697Z,79.10
2023-01-09T14:18:26.692Z,66.70
2023-01-09T14:20:56.315Z,60.40
2023-01-09T14:23:49.839Z,56.10
2023-01-09T14:26:20.955Z,54.40
2023-01-09T14:28:49.033Z,60.00
2023-01-09T14:31:48.296Z,48.20
2023-01-09T14:34:31.950Z,37.70
2023-01-09T14:37:01.811Z,45.80
2023-01-09T14:39:31.737Z,47.90
2023-01-09T14:42:06.368Z,41.30
2023-01-09T14:44:34.175Z,43.50
2023-01-09T14:47:05.668Z,40.50
2023-01-09T14:49:35.954Z,33.30
2023-01-09T14:52:10.660Z,37.80
2023-01-09T14:54:40.011Z,54.80
2023-01-09T14:57:28.258Z,54.00
2023-01-09T14:59:57.314Z,50.10
2023-01-09T15:02:27.940Z,35.40
2023-01-09T15:04:57.167Z,39.60
2023-01-09T15:07:34.312Z,50.30
2023-01-09T15:10:02.979Z,47.60
2023-01-09T15:12:37.153Z,56.20
2023-01-09T15:15:06.293Z,53.60
2023-01-09T15:17:35.613Z,66.70
2023-01-09T15:20:06.262Z,48.50
2023-01-09T15:22:35.405Z,113.00
2023-01-09T15:25:15.980Z,45.60
2023-01-09T15:27:47.045Z,34.20
2023-01-09T15:30:15.999Z,41.40
2023-01-09T15:32:45.343Z,39.30
2023-01-09T15:35:13.915Z,40.90
2023-01-09T15:37:42.167Z,35.50
2023-01-09T15:40:21.886Z,33.50
2023-01-09T15:42:57.421Z,48.70
2023-01-09T15:45:28.703Z,37.70
2023-01-09T15:48:13.888Z,50.20
2023-01-09T15:50:42.515Z,47.70
2023-01-09T15:53:14.794Z,40.60
2023-01-09T15:55:43.121Z,80.50
2023-01-09T15:58:30.317Z,82.10
2023-01-09T16:01:00.184Z,138.60
2023-01-09T16:03:28.844Z,114.80
2023-01-09T16:06:05.497Z,66.40
2023-01-09T16:08:35.693Z,95.40
2023-01-09T16:11:21.911Z,124.10
2023-01-09T16:13:50.191Z,153.70
2023-01-09T16:16:28.853Z,119.50
2023-01-09T16:18:58.089Z,142.20
2023-01-09T16:21:31.509Z,159.20
2023-01-09T16:24:01.486Z,65.30
2023-01-09T16:26:30.147Z,99.00
2023-01-09T16:29:18.024Z,50.80
2023-01-09T16:31:45.937Z,53.20
2023-01-09T16:34:13.847Z,33.60
2023-01-09T16:36:41.922Z,146.10
2023-01-09T16:39:15.183Z,48.60
2023-01-09T16:42:02.705Z,60.80
2023-01-09T16:44:37.117Z,117.90
2023-01-09T16:47:05.120Z,72.60
2023-01-09T16:49:33.201Z,91.40
2023-01-09T16:52:03.147Z,92.20
2023-01-09T16:54:30.859Z,42.30
2023-01-09T16:57:00.864Z,42.90
2023-01-09T16:59:29.145Z,36.00
2023-01-09T17:01:57.080Z,32.30
2023-01-09T17:04:44.768Z,28.60
2023-01-09T17:07:16.656Z,29.30
2023-01-09T17:09:45.843Z,30.30
2023-01-09T17:12:19.830Z,29.50
2023-01-09T17:14:48.384Z,29.10
2023-01-09T17:17:17.526Z,30.80
2023-01-09T17:19:46.884Z,29.80
2023-01-09T17:22:14.853Z,30.80
2023-01-09T17:25:01.066Z,32.60
2023-01-09T17:27:50.349Z,34.10
2023-01-09T17:30:19.421Z,33.90
2023-01-09T17:32:48.544Z,40.90
2023-01-09T17:35:16.964Z,40.80
2023-01-09T17:37:45.306Z,36.50
2023-01-09T17:40:20.619Z,39.80
2023-01-09T17:42:48.295Z,37.10
2023-01-09T17:45:26.954Z,38.90
2023-01-09T17:47:54.709Z,37.80
2023-01-09T17:50:22.803Z,44.20
2023-01-09T17:52:51.327Z,48.70
2023-01-09T17:55:19.130Z,44.00
2023-01-09T17:57:47.021Z,49.10
2023-01-09T18:00:18.120Z,52.80
2023-01-09T18:02:46.270Z,50.40
2023-01-09T18:05:14.058Z,51.20
2023-01-09T18:07:41.925Z,49.40
2023-01-09T18:10:32.800Z,49.30
2023-01-09T18:13:01.035Z,51.00
2023-01-09T18:15:28.822Z,49.60
2023-01-09T18:17:59.975Z,51.40
2023-01-09T18:20:28.751Z,48.80
2023-01-09T18:23:00.972Z,55.70
2023-01-09T18:25:41.170Z,57.40
2023-01-09T18:28:16.380Z,55.80
2023-01-09T18:31:11.177Z,53.50
2023-01-09T18:33:44.732Z,59.40
2023-01-09T18:36:12.705Z,55.20
2023-01-09T18:38:40.440Z,57.50
2023-01-09T18:41:08.857Z,55.30
2023-01-09T18:43:36.672Z,54.60
2023-01-09T18:48:40.846Z,60.60
2023-01-09T18:51:09.346Z,55.20
2023-01-09T18:53:38.443Z,59.90
2023-01-09T18:56:06.296Z,53.00
2023-01-09T18:58:34.669Z,58.60
2023-01-09T19:01:02.595Z,61.30
2023-01-09T19:03:32.147Z,60.10
2023-01-09T19:06:03.640Z,56.70
2023-01-09T19:08:32.170Z,55.00
2023-01-09T19:11:00.432Z,55.20
2023-01-09T19:13:29.776Z,56.80
2023-01-09T19:15:58.615Z,54.00
2023-01-09T19:18:26.893Z,60.10
2023-01-09T19:20:55.360Z,57.20
2023-01-09T19:23:26.728Z,61.00
2023-01-09T19:25:54.764Z,61.10
2023-01-09T19:28:22.679Z,63.70
2023-01-09T19:30:57.086Z,60.90
2023-01-09T19:33:25.497Z,59.30
2023-01-09T19:35:54.080Z,52.70
2023-01-09T19:38:26.967Z,59.70
2023-01-09T19:40:57.064Z,60.30
2023-01-09T19:43:33.810Z,63.00
2023-01-09T19:46:01.824Z,62.20
2023-01-09T19:48:30.655Z,67.00
2023-01-09T19:51:03.698Z,68.50
2023-01-09T19:53:32.871Z,70.10
2023-01-09T19:56:19.371Z,72.20
2023-01-09T19:58:49.064Z,74.90
2023-01-09T20:01:27.621Z,74.30
2023-01-09T20:04:02.890Z,71.80
2023-01-09T20:06:33.735Z,76.30
2023-01-09T20:09:03.365Z,79.80
2023-01-09T20:11:33.237Z,78.40
2023-01-09T20:14:01.055Z,73.50
2023-01-09T20:16:31.116Z,73.70
2023-01-09T20:19:00.741Z,71.10
2023-01-09T20:21:30.399Z,74.70
2023-01-09T20:24:12.387Z,74.70
2023-01-09T20:26:49.045Z,79.10
2023-01-09T20:29:17.301Z,75.90
2023-01-09T20:31:46.444Z,76.40
2023-01-09T20:34:17.826Z,79.00
2023-01-09T20:36:46.405Z,75.60
2023-01-09T20:39:14.424Z,78.40
2023-01-09T20:41:42.451Z,79.60
2023-01-09T20:44:12.347Z,79.30
2023-01-09T20:46:43.830Z,72.80
2023-01-09T20:49:15.079Z,80.20
2023-01-09T20:51:45.308Z,69.30
2023-01-09T20:54:14.196Z,72.10
2023-01-09T20:56:44.750Z,78.70
2023-01-09T20:59:23.276Z,72.60
2023-01-09T21:01:52.324Z,75.90
2023-01-09T21:04:21.310Z,73.40
2023-01-09T21:06:50.383Z,72.10
2023-01-09T21:09:18.728Z,62.60
2023-01-09T21:11:46.968Z,65.50
2023-01-09T21:14:16.183Z,71.30
2023-01-09T21:16:53.684Z,60.30
2023-01-09T21:19:22.867Z,64.50
2023-01-09T21:21:53.502Z,62.80
2023-01-09T21:24:21.732Z,62.00
2023-01-09T21:26:49.717Z,64.60
2023-01-09T21:29:17.725Z,63.60
2023-01-09T21:31:45.983Z,63.30
2023-01-09T21:34:15.783Z,66.90
2023-01-09T21:36:45.030Z,61.80
2023-01-09T21:39:12.857Z,70.20
2023-01-09T21:41:59.545Z,62.90
2023-01-09T21:44:46.337Z,62.90
2023-01-09T21:47:14.959Z,67.90
2023-01-09T21:49:44.040Z,63.90
2023-01-09T21:52:13.039Z,66.80
2023-01-09T21:54:41.518Z,69.30
2023-01-09T21:57:09.469Z,68.90
2023-01-09T21:59:43.755Z,65.30
2023-01-09T22:02:13.203Z,62.70
2023-01-09T22:04:42.931Z,65.90
2023-01-09T22:07:10.776Z,61.90
2023-01-09T22:09:38.570Z,61.00
2023-01-09T22:12:06.703Z,65.10
2023-01-09T22:14:34.350Z,62.50
2023-01-09T22:17:02.110Z,59.90
2023-01-09T22:19:29.826Z,60.60
2023-01-09T22:21:57.889Z,55.80
2023-01-09T22:24:25.657Z,62.20
2023-01-09T22:26:53.485Z,55.60
2023-01-09T22:29:22.054Z,63.60
2023-01-09T22:31:49.844Z,60.60
2023-01-09T22:34:19.276Z,60.50
2023-01-09T22:36:47.412Z,62.60
2023-01-09T22:39:16.534Z,57.60
2023-01-09T22:41:44.978Z,61.30
2023-01-09T22:44:12.836Z,59.00
2023-01-09T22:46:40.507Z,59.70
2023-01-09T22:49:09.028Z,61.40
2023-01-09T22:51:36.749Z,51.90
2023-01-09T22:54:04.552Z,53.10
2023-01-09T22:56:32.899Z,62.40
2023-01-09T22:59:01.136Z,59.50
2023-01-09T23:01:29.279Z,58.10
2023-01-09T23:03:57.168Z,62.20
2023-01-09T23:06:25.392Z,60.30
2023-01-09T23:08:53.640Z,56.60
2023-01-09T23:11:43.368Z,59.90
2023-01-09T23:14:11.457Z,58.60
2023-01-09T23:16:39.203Z,62.40
2023-01-09T23:19:08.980Z,56.40
2023-01-09T23:21:37.062Z,54.30
2023-01-09T23:24:06.974Z,60.70
2023-01-09T23:26:35.306Z,62.40
2023-01-09T23:29:06.973Z,61.40
2023-01-09T23:31:36.509Z,57.10
2023-01-09T23:34:04.837Z,54.20
2023-01-09T23:36:32.635Z,56.90
2023-01-09T23:39:00.443Z,60.40
2023-01-09T23:41:48.184Z,61.50
2023-01-09T23:44:16.289Z,58.60
2023-01-09T23:46:44.305Z,57.50
2023-01-09T23:49:12.670Z,60.80
2023-01-09T23:51:40.368Z,56.80
2023-01-09T23:54:16.601Z,64.00
2023-01-09T23:56:44.852Z,56.30
2023-01-09T23:59:14.264Z,56.30
